createdAt,value
2023-03-29T00:00:18.356Z,101544.50
2023-03-29T00:02:45.011Z,101537.72
2023-03-29T00:05:11.371Z,101531.81
2023-03-29T00:07:37.645Z,101524.44
2023-03-29T00:10:04.689Z,101525.28
2023-03-29T00:12:32.082Z,101519.25
2023-03-29T00:14:58.392Z,101510.72
2023-03-29T00:17:24.824Z,101512.09
2023-03-29T00:19:51.147Z,101502.88
2023-03-29T00:22:17.505Z,101498.72
2023-03-29T00:24:43.819Z,101507.06
2023-03-29T00:27:10.225Z,101507.75
2023-03-29T00:29:36.724Z,101505.16
2023-03-29T00:32:03.095Z,101512.00
2023-03-29T00:34:29.424Z,101503.56
2023-03-29T00:36:55.882Z,101505.94
2023-03-29T00:39:22.291Z,101501.78
2023-03-29T00:41:50.126Z,101499.06
2023-03-29T00:44:54.120Z,101501.78
2023-03-29T00:47:24.250Z,101510.19
2023-03-29T00:49:52.673Z,101496.66
2023-03-29T00:52:21.015Z,101504.03
2023-03-29T00:54:50.651Z,101496.47
2023-03-29T00:57:20.273Z,101493.25
2023-03-29T00:59:48.366Z,101495.88
2023-03-29T01:02:21.500Z,101496.84
2023-03-29T01:04:55.971Z,101481.34
2023-03-29T01:07:27.649Z,101476.59
2023-03-29T01:10:15.598Z,101474.94
2023-03-29T01:12:48.516Z,101461.63
2023-03-29T01:15:19.416Z,101455.81
2023-03-29T01:17:45.855Z,101453.38
2023-03-29T01:20:45.294Z,101444.88
2023-03-29T01:23:50.446Z,101440.81
2023-03-29T01:26:25.099Z,101444.28
2023-03-29T01:29:05.283Z,101437.50
2023-03-29T01:31:36.958Z,101436.72
2023-03-29T01:34:31.524Z,101425.59
2023-03-29T01:37:07.378Z,101429.25
2023-03-29T01:39:33.757Z,101422.56
2023-03-29T01:42:18.498Z,101420.19
2023-03-29T01:45:10.687Z,101410.94
2023-03-29T01:47:46.541Z,101403.44
2023-03-29T01:50:18.499Z,101403.19
2023-03-29T01:52:58.784Z,101399.25
2023-03-29T01:55:31.621Z,101392.56
2023-03-29T01:58:00.167Z,101389.13
2023-03-29T02:00:28.596Z,101380.84
2023-03-29T02:03:00.630Z,101374.03
2023-03-29T02:05:29.940Z,101375.22
2023-03-29T02:07:57.940Z,101369.75
2023-03-29T02:10:24.343Z,101363.00
2023-03-29T02:12:50.661Z,101364.00
2023-03-29T02:15:19.953Z,101359.69
2023-03-29T02:17:48.100Z,101360.69
2023-03-29T02:20:27.872Z,101356.44
2023-03-29T02:23:00.840Z,101354.72
2023-03-29T02:25:27.282Z,101350.63
2023-03-29T02:27:54.072Z,101353.16
2023-03-29T02:30:21.029Z,101348.19
2023-03-29T02:32:53.694Z,101347.97
2023-03-29T02:35:27.053Z,101345.38
2023-03-29T02:37:55.733Z,101339.47
2023-03-29T02:40:24.528Z,101340.25
2023-03-29T02:42:51.127Z,101337.72
2023-03-29T02:45:18.675Z,101339.47
2023-03-29T02:47:48.255Z,101333.63
2023-03-29T02:50:14.730Z,101331.13
2023-03-29T02:52:47.176Z,101327.81
2023-03-29T02:55:18.106Z,101320.25
2023-03-29T02:57:44.414Z,101318.75
2023-03-29T03:00:12.033Z,101316.31
2023-03-29T03:02:38.439Z,101315.38
2023-03-29T03:05:05.406Z,101305.94
2023-03-29T03:07:32.252Z,101307.50
2023-03-29T03:09:58.570Z,101299.00
2023-03-29T03:12:25.026Z,101304.19
2023-03-29T03:14:51.333Z,101300.91
2023-03-29T03:17:17.633Z,101293.16
2023-03-29T03:19:44.130Z,101298.03
2023-03-29T03:22:10.443Z,101296.47
2023-03-29T03:24:36.776Z,101293.47
2023-03-29T03:27:03.224Z,101287.56
2023-03-29T03:29:29.506Z,101286.78
2023-03-29T03:31:55.870Z,101287.47
2023-03-29T03:34:22.609Z,101281.47
2023-03-29T03:36:48.916Z,101275.50
2023-03-29T03:39:15.214Z,101277.09
2023-03-29T03:41:41.489Z,101275.78
2023-03-29T03:44:07.805Z,101278.31
2023-03-29T03:46:34.170Z,101273.44
2023-03-29T03:49:00.470Z,101284.94
2023-03-29T03:51:26.767Z,101276.84
2023-03-29T03:53:53.067Z,101278.59
2023-03-29T03:56:19.352Z,101275.84
2023-03-29T03:58:45.768Z,101280.00
2023-03-29T04:01:12.111Z,101273.06
2023-03-29T04:03:38.729Z,101257.28
2023-03-29T04:06:05.523Z,101264.28
2023-03-29T04:08:31.900Z,101265.94
2023-03-29T04:10:59.852Z,101257.28
2023-03-29T04:13:27.414Z,101257.28
2023-03-29T04:15:54.632Z,101260.28
2023-03-29T04:18:21.713Z,101268.88
2023-03-29T04:20:48.475Z,101261.31
2023-03-29T04:23:15.240Z,101272.00
2023-03-29T04:25:41.753Z,101255.16
2023-03-29T04:28:09.327Z,101255.34
2023-03-29T04:30:35.638Z,101255.50
2023-03-29T04:33:02.028Z,101255.34
2023-03-29T04:35:28.375Z,101254.72
2023-03-29T04:37:54.682Z,101257.94
2023-03-29T04:40:20.992Z,101258.81
2023-03-29T04:42:47.566Z,101259.03
2023-03-29T04:45:14.446Z,101242.28
2023-03-29T04:47:41.247Z,101250.09
2023-03-29T04:50:08.059Z,101244.44
2023-03-29T04:52:35.008Z,101244.34
2023-03-29T04:55:01.849Z,101242.94
2023-03-29T04:57:28.768Z,101246.41
2023-03-29T04:59:55.129Z,101239.81
2023-03-29T05:02:21.843Z,101235.84
2023-03-29T05:04:48.195Z,101243.50
2023-03-29T05:07:15.082Z,101238.38
2023-03-29T05:09:41.627Z,101233.44
2023-03-29T05:12:08.034Z,101243.59
2023-03-29T05:14:34.357Z,101238.63
2023-03-29T05:17:00.686Z,101232.81
2023-03-29T05:19:27.167Z,101227.69
2023-03-29T05:21:53.489Z,101233.75
2023-03-29T05:24:20.252Z,101218.94
2023-03-29T05:26:46.684Z,101223.50
2023-03-29T05:29:13.585Z,101221.06
2023-03-29T05:31:39.935Z,101218.72
2023-03-29T05:34:06.786Z,101219.66
2023-03-29T05:36:33.653Z,101211.31
2023-03-29T05:38:59.982Z,101210.66
2023-03-29T05:41:26.318Z,101206.75
2023-03-29T05:43:52.666Z,101209.34
2023-03-29T05:46:19.029Z,101212.09
2023-03-29T05:48:45.470Z,101198.69
2023-03-29T05:51:11.763Z,101203.03
2023-03-29T05:53:38.076Z,101206.41
2023-03-29T05:56:04.686Z,101200.88
2023-03-29T05:58:31.080Z,101205.22
2023-03-29T06:00:57.431Z,101206.25
2023-03-29T06:03:24.826Z,101200.47
2023-03-29T06:06:01.729Z,101199.75
2023-03-29T06:08:28.643Z,101199.91
2023-03-29T06:11:05.097Z,101200.06
2023-03-29T06:13:32.903Z,101205.25
2023-03-29T06:15:59.471Z,101204.03
2023-03-29T06:18:26.039Z,101204.28
2023-03-29T06:20:53.578Z,101197.06
2023-03-29T06:23:20.581Z,101202.47
2023-03-29T06:25:47.379Z,101195.19
2023-03-29T06:28:14.559Z,101204.66
2023-03-29T06:30:41.716Z,101202.56
2023-03-29T06:33:08.979Z,101206.06
2023-03-29T06:35:36.796Z,101212.38
2023-03-29T06:38:03.987Z,101203.56
2023-03-29T06:40:30.485Z,101192.22
2023-03-29T06:42:57.906Z,101197.59
2023-03-29T06:45:26.303Z,101193.91
2023-03-29T06:47:54.957Z,101195.97
2023-03-29T06:50:21.423Z,101191.31
2023-03-29T06:52:47.774Z,101192.41
2023-03-29T06:55:14.090Z,101180.97
2023-03-29T06:57:40.434Z,101175.50
2023-03-29T07:00:07.537Z,101173.25
2023-03-29T07:02:33.856Z,101176.97
2023-03-29T07:05:00.152Z,101174.19
2023-03-29T07:07:26.449Z,101178.59
2023-03-29T07:09:52.753Z,101178.31
2023-03-29T07:12:20.623Z,101176.81
2023-03-29T07:14:46.943Z,101167.06
2023-03-29T07:17:13.266Z,101172.41
2023-03-29T07:19:39.569Z,101171.81
2023-03-29T07:22:05.929Z,101171.25
2023-03-29T07:24:32.256Z,101173.31
2023-03-29T07:27:03.752Z,101172.66
2023-03-29T07:29:31.624Z,101175.47
2023-03-29T07:31:57.997Z,101176.69
2023-03-29T07:34:24.390Z,101167.75
2023-03-29T07:36:50.768Z,101171.56
2023-03-29T07:39:17.088Z,101164.31
2023-03-29T07:41:43.419Z,101165.38
2023-03-29T07:44:09.729Z,101169.13
2023-03-29T07:46:36.766Z,101169.44
2023-03-29T07:49:03.978Z,101164.72
2023-03-29T07:51:30.288Z,101156.91
2023-03-29T07:53:56.574Z,101166.25
2023-03-29T07:56:23.014Z,101167.19
2023-03-29T07:58:49.319Z,101167.25
2023-03-29T08:01:18.701Z,101157.91
2023-03-29T08:03:45.854Z,101160.44
2023-03-29T08:06:12.244Z,101159.69
2023-03-29T08:08:38.575Z,101163.34
2023-03-29T08:11:05.003Z,101168.22
2023-03-29T08:13:31.331Z,101162.06
2023-03-29T08:15:57.665Z,101155.84
2023-03-29T08:18:24.024Z,101157.50
2023-03-29T08:20:50.514Z,101156.72
2023-03-29T08:23:16.871Z,101152.53
2023-03-29T08:25:44.910Z,101150.47
2023-03-29T08:28:11.191Z,101152.84
2023-03-29T08:30:37.551Z,101158.09
2023-03-29T08:33:03.959Z,101151.75
2023-03-29T08:35:30.337Z,101144.44
2023-03-29T08:37:56.652Z,101146.59
2023-03-29T08:40:26.227Z,101144.88
2023-03-29T08:43:02.494Z,101146.78
2023-03-29T08:45:39.113Z,101142.09
2023-03-29T08:48:05.396Z,101146.69
2023-03-29T08:50:43.642Z,101146.19
2023-03-29T08:53:24.073Z,101144.53
2023-03-29T08:55:52.914Z,101134.53
2023-03-29T08:58:25.157Z,101125.78
2023-03-29T09:00:55.060Z,101127.81
2023-03-29T09:03:24.105Z,101121.78
2023-03-29T09:06:05.825Z,101117.53
2023-03-29T09:08:37.185Z,101115.78
2023-03-29T09:11:25.010Z,101118.59
2023-03-29T09:14:06.545Z,101115.75
2023-03-29T09:16:44.923Z,101105.66
2023-03-29T09:19:23.247Z,101108.47
2023-03-29T09:22:03.573Z,101101.28
2023-03-29T09:24:42.050Z,101099.41
2023-03-29T09:27:14.583Z,101098.88
2023-03-29T09:29:49.261Z,101096.75
2023-03-29T09:32:34.495Z,101088.63
2023-03-29T09:35:15.727Z,101089.25
2023-03-29T09:37:42.185Z,101098.66
2023-03-29T09:40:16.108Z,101099.34
2023-03-29T09:42:44.259Z,101092.50
2023-03-29T09:45:10.958Z,101096.75
2023-03-29T09:47:48.498Z,101093.38
2023-03-29T09:50:30.796Z,101092.66
2023-03-29T09:52:57.599Z,101085.97
2023-03-29T09:55:29.085Z,101092.94
2023-03-29T09:58:00.545Z,101088.81
2023-03-29T10:00:26.891Z,101070.44
2023-03-29T10:02:56.170Z,101070.69
2023-03-29T10:05:24.936Z,101069.19
2023-03-29T10:07:54.249Z,101065.00
2023-03-29T10:10:27.980Z,101071.78
2023-03-29T10:12:59.822Z,101070.22
2023-03-29T10:15:30.669Z,101064.41
2023-03-29T10:18:08.148Z,101057.53
2023-03-29T10:20:36.568Z,101054.13
2023-03-29T10:23:06.901Z,101048.16
2023-03-29T10:25:37.053Z,101048.47
2023-03-29T10:28:16.232Z,101043.44
2023-03-29T10:30:44.279Z,101040.59
2023-03-29T10:33:20.149Z,101040.63
2023-03-29T10:35:48.151Z,101026.25
2023-03-29T10:38:18.281Z,101032.44
2023-03-29T10:40:50.599Z,101030.72
2023-03-29T10:43:16.844Z,101029.81
2023-03-29T10:45:44.302Z,101025.41
2023-03-29T10:48:15.540Z,101030.56
2023-03-29T10:50:42.471Z,101017.00
2023-03-29T10:53:25.974Z,101016.69
2023-03-29T10:56:10.328Z,101026.16
2023-03-29T10:58:43.725Z,101021.16
2023-03-29T11:01:24.676Z,101015.25
2023-03-29T11:04:29.978Z,101014.50
2023-03-29T11:07:20.070Z,101006.97
2023-03-29T11:09:59.214Z,101013.06
2023-03-29T11:12:25.373Z,101002.81
2023-03-29T11:15:12.887Z,100996.75
2023-03-29T11:17:57.721Z,100992.47
2023-03-29T11:20:48.665Z,100999.25
2023-03-29T11:23:21.171Z,101004.25
2023-03-29T11:25:59.513Z,101004.91
2023-03-29T11:28:53.808Z,100999.63
2023-03-29T11:31:23.041Z,100997.97
2023-03-29T11:33:53.651Z,101008.34
2023-03-29T11:36:39.137Z,100995.50
2023-03-29T11:39:21.542Z,100989.53
2023-03-29T11:41:57.960Z,100987.78
2023-03-29T11:44:29.515Z,100976.75
2023-03-29T11:47:01.946Z,100986.06
2023-03-29T11:49:52.607Z,100981.63
2023-03-29T11:52:24.695Z,100974.94
2023-03-29T11:54:50.941Z,100975.97
2023-03-29T11:57:26.161Z,100969.13
2023-03-29T12:00:13.222Z,100976.81
2023-03-29T12:02:56.051Z,100973.47
2023-03-29T12:05:30.214Z,100974.31
2023-03-29T12:08:20.487Z,100970.09
2023-03-29T12:11:29.254Z,100968.41
2023-03-29T12:14:19.245Z,100963.34
2023-03-29T12:17:00.877Z,100967.53
2023-03-29T12:19:30.208Z,100961.59
2023-03-29T12:21:58.748Z,100960.72
2023-03-29T12:24:29.518Z,100941.91
2023-03-29T12:27:04.618Z,100949.69
2023-03-29T12:29:49.036Z,100946.25
2023-03-29T12:32:37.134Z,100959.97
2023-03-29T12:35:22.410Z,100945.38
2023-03-29T12:37:54.744Z,100954.81
2023-03-29T12:40:25.443Z,100942.84
2023-03-29T12:42:54.233Z,100939.41
2023-03-29T12:45:33.040Z,100939.41
2023-03-29T12:47:59.927Z,100945.38
2023-03-29T12:50:32.932Z,100938.47
2023-03-29T12:53:17.096Z,100940.22
2023-03-29T12:55:43.568Z,100935.13
2023-03-29T12:58:25.465Z,100929.16
2023-03-29T13:01:07.270Z,100925.75
2023-03-29T13:03:39.553Z,100932.56
2023-03-29T13:06:11.341Z,100916.31
2023-03-29T13:08:43.257Z,100918.03
2023-03-29T13:11:26.629Z,100908.66
2023-03-29T13:13:53.321Z,100899.28
2023-03-29T13:16:29.040Z,100901.84
2023-03-29T13:19:05.097Z,100912.09
2023-03-29T13:21:53.163Z,100913.78
2023-03-29T13:24:29.759Z,100907.75
2023-03-29T13:27:14.964Z,100906.03
2023-03-29T13:29:44.250Z,100914.56
2023-03-29T13:32:57.226Z,100909.44
2023-03-29T13:36:14.226Z,100903.41
2023-03-29T13:38:46.503Z,100911.16
2023-03-29T13:41:33.363Z,100912.84
2023-03-29T13:44:00.136Z,100914.53
2023-03-29T13:46:43.507Z,100908.56
2023-03-29T13:49:23.352Z,100905.19
2023-03-29T13:52:34.632Z,100906.03
2023-03-29T13:55:15.578Z,100903.44
2023-03-29T13:58:12.655Z,100913.63
2023-03-29T14:00:45.266Z,100906.81
2023-03-29T14:03:17.280Z,100906.75
2023-03-29T14:06:01.092Z,100898.22
2023-03-29T14:08:29.976Z,100899.97
2023-03-29T14:11:00.725Z,100893.97
2023-03-29T14:13:28.730Z,100894.81
2023-03-29T14:16:15.367Z,100893.13
2023-03-29T14:18:42.541Z,100903.31
2023-03-29T14:21:12.224Z,100904.16
2023-03-29T14:23:38.594Z,100903.28
2023-03-29T14:26:09.077Z,100906.66
2023-03-29T14:28:35.376Z,100907.50
2023-03-29T14:31:01.805Z,100903.19
2023-03-29T14:33:29.291Z,100904.03
2023-03-29T14:35:58.111Z,100893.78
2023-03-29T14:38:25.705Z,100901.53
2023-03-29T14:40:52.278Z,100895.56
2023-03-29T14:43:20.818Z,100905.78
2023-03-29T14:45:48.006Z,100897.19
2023-03-29T14:48:14.949Z,100898.03
2023-03-29T14:50:42.332Z,100892.03
2023-03-29T14:53:22.684Z,100889.50
2023-03-29T14:55:51.331Z,100893.78
2023-03-29T14:58:35.871Z,100892.94
2023-03-29T15:01:07.437Z,100885.25
2023-03-29T15:03:55.106Z,100885.25
2023-03-29T15:06:24.102Z,100885.13
2023-03-29T15:08:57.974Z,100882.53
2023-03-29T15:11:31.224Z,100879.19
2023-03-29T15:14:25.175Z,100877.47
2023-03-29T15:16:55.474Z,100880.91
2023-03-29T15:19:25.184Z,100878.34
2023-03-29T15:21:51.948Z,100879.19
2023-03-29T15:24:27.613Z,100872.31
2023-03-29T15:27:03.752Z,100873.16
2023-03-29T15:29:36.041Z,100868.91
2023-03-29T15:32:02.786Z,100870.53
2023-03-29T15:34:30.856Z,100867.13
2023-03-29T15:36:57.745Z,100858.56
2023-03-29T15:39:24.931Z,100859.44
2023-03-29T15:41:52.640Z,100861.16
2023-03-29T15:44:27.312Z,100856.94
2023-03-29T15:46:54.223Z,100839.88
2023-03-29T15:49:21.179Z,100842.44
2023-03-29T15:51:47.485Z,100841.63
2023-03-29T15:54:13.824Z,100839.91
2023-03-29T15:57:08.530Z,100831.34
2023-03-29T15:59:35.139Z,100825.34
2023-03-29T16:02:01.583Z,100824.50
2023-03-29T16:04:27.987Z,100816.81
2023-03-29T16:06:55.355Z,100817.63
2023-03-29T16:09:22.562Z,100808.22
2023-03-29T16:11:49.537Z,100807.38
2023-03-29T16:14:24.380Z,100810.84
2023-03-29T16:16:52.130Z,100811.66
2023-03-29T16:19:19.506Z,100795.47
2023-03-29T16:21:45.954Z,100800.56
2023-03-29T16:24:18.431Z,100807.38
2023-03-29T16:26:45.299Z,100807.34
2023-03-29T16:29:12.141Z,100812.44
2023-03-29T16:31:38.956Z,100808.19
2023-03-29T16:34:05.633Z,100820.13
2023-03-29T16:36:32.015Z,100821.81
2023-03-29T16:38:58.488Z,100812.44
2023-03-29T16:41:24.911Z,100810.75
2023-03-29T16:43:51.244Z,100809.88
2023-03-29T16:51:56.958Z,100804.75
2023-03-29T16:54:23.273Z,100813.22
2023-03-29T16:56:49.608Z,100804.69
2023-03-29T16:59:15.903Z,100805.56
2023-03-29T17:01:42.458Z,100800.44
2023-03-29T17:04:09.091Z,100802.97
2023-03-29T17:06:35.529Z,100805.50
2023-03-29T17:09:01.847Z,100797.84
2023-03-29T17:11:28.592Z,100803.81
2023-03-29T17:14:00.395Z,100800.38
2023-03-29T17:16:29.585Z,100793.50
2023-03-29T17:18:59.879Z,100790.94
2023-03-29T17:21:26.248Z,100794.31
2023-03-29T17:23:52.629Z,100797.69
2023-03-29T17:26:18.953Z,100799.41
2023-03-29T17:28:45.264Z,100795.09
2023-03-29T17:31:11.731Z,100799.38
2023-03-29T17:33:40.089Z,100801.06
2023-03-29T17:36:07.385Z,100797.69
2023-03-29T17:38:34.354Z,100785.69
2023-03-29T17:41:01.074Z,100789.94
2023-03-29T17:43:30.502Z,100798.44
2023-03-29T17:45:56.788Z,100792.50
2023-03-29T17:48:24.034Z,100787.34
2023-03-29T17:50:50.540Z,100789.03
2023-03-29T17:53:16.915Z,100789.03
2023-03-29T17:55:43.258Z,100791.56
2023-03-29T17:58:09.558Z,100791.56
2023-03-29T18:00:35.937Z,100798.38
2023-03-29T18:03:02.322Z,100791.50
2023-03-29T18:05:28.715Z,100795.72
2023-03-29T18:07:55.181Z,100796.59
2023-03-29T18:10:21.652Z,100792.28
2023-03-29T18:12:48.028Z,100799.97
2023-03-29T18:15:14.350Z,100787.94
2023-03-29T18:17:40.717Z,100798.19
2023-03-29T18:20:07.749Z,100793.06
2023-03-29T18:22:34.040Z,100790.47
2023-03-29T18:25:00.330Z,100793.84
2023-03-29T18:27:26.624Z,100790.41
2023-03-29T18:29:52.983Z,100792.09
2023-03-29T18:32:19.467Z,100794.63
2023-03-29T18:34:45.883Z,100794.56
2023-03-29T18:37:12.179Z,100797.13
2023-03-29T18:39:38.459Z,100784.34
2023-03-29T18:42:04.838Z,100797.13
2023-03-29T18:44:31.177Z,100793.69
2023-03-29T18:46:57.476Z,100788.53
2023-03-29T18:49:24.402Z,100790.19
2023-03-29T18:51:50.702Z,100792.75
2023-03-29T18:54:17.593Z,100794.47
2023-03-29T18:56:44.000Z,100797.84
2023-03-29T18:59:10.334Z,100797.88
2023-03-29T19:01:36.771Z,100802.09
2023-03-29T19:04:03.310Z,100791.06
2023-03-29T19:06:29.782Z,100795.31
2023-03-29T19:08:56.084Z,100799.53
2023-03-29T19:11:22.408Z,100797.84
2023-03-29T19:13:48.715Z,100789.31
2023-03-29T19:16:15.061Z,100797.84
2023-03-29T19:18:41.501Z,100787.59
2023-03-29T19:21:07.960Z,100783.31
2023-03-29T19:23:34.331Z,100784.97
2023-03-29T19:26:02.950Z,100779.88
2023-03-29T19:28:29.780Z,100781.56
2023-03-29T19:30:58.742Z,100778.16
2023-03-29T19:33:25.118Z,100777.31
2023-03-29T19:35:51.571Z,100777.31
2023-03-29T19:38:20.997Z,100781.47
2023-03-29T19:40:49.025Z,100775.56
2023-03-29T19:43:15.709Z,100776.34
2023-03-29T19:45:47.370Z,100774.66
2023-03-29T19:48:21.938Z,100777.22
2023-03-29T19:50:49.168Z,100772.09
2023-03-29T19:53:15.484Z,100764.44
2023-03-29T19:55:42.379Z,100759.34
2023-03-29T19:58:08.856Z,100755.06
2023-03-29T20:00:35.293Z,100755.94
2023-03-29T20:03:01.693Z,100749.09
2023-03-29T20:05:28.148Z,100748.25
2023-03-29T20:07:54.476Z,100741.41
2023-03-29T20:10:20.823Z,100745.63
2023-03-29T20:12:47.101Z,100743.06
2023-03-29T20:15:13.486Z,100737.94
2023-03-29T20:17:39.802Z,100742.22
2023-03-29T20:20:10.360Z,100737.94
2023-03-29T20:22:38.026Z,100740.47
2023-03-29T20:25:05.122Z,100737.88
2023-03-29T20:27:31.418Z,100733.66
2023-03-29T20:29:57.693Z,100731.06
2023-03-29T20:32:24.059Z,100729.34
2023-03-29T20:34:50.379Z,100731.03
2023-03-29T20:37:16.683Z,100728.47
2023-03-29T20:39:42.951Z,100723.38
2023-03-29T20:42:09.274Z,100724.19
2023-03-29T20:44:35.569Z,100720.78
2023-03-29T20:47:01.892Z,100708.03
2023-03-29T20:49:30.247Z,100713.13
2023-03-29T20:51:56.541Z,100704.63
2023-03-29T20:54:22.833Z,100707.97
2023-03-29T20:56:49.236Z,100702.00
2023-03-29T20:59:15.526Z,100707.06
2023-03-29T21:01:41.840Z,100695.16
2023-03-29T21:04:08.709Z,100695.19
2023-03-29T21:06:35.998Z,100691.75
2023-03-29T21:09:02.309Z,100690.06
2023-03-29T21:11:28.638Z,100687.53
2023-03-29T21:13:54.908Z,100690.94
2023-03-29T21:16:21.256Z,100693.47
2023-03-29T21:18:47.560Z,100691.75
2023-03-29T21:21:13.867Z,100686.66
2023-03-29T21:23:40.141Z,100687.50
2023-03-29T21:26:06.474Z,100680.69
2023-03-29T21:28:33.452Z,100678.97
2023-03-29T21:31:04.036Z,100674.72
2023-03-29T21:33:30.541Z,100674.72
2023-03-29T21:35:57.062Z,100672.19
2023-03-29T21:38:23.622Z,100674.72
2023-03-29T21:40:55.595Z,100673.88
2023-03-29T21:43:22.208Z,100667.91
2023-03-29T21:45:49.778Z,100667.91
2023-03-29T21:48:17.175Z,100667.06
2023-03-29T21:50:43.526Z,100653.44
2023-03-29T21:53:10.191Z,100650.03
2023-03-29T21:55:36.490Z,100651.72
2023-03-29T21:58:04.017Z,100650.84
2023-03-29T22:00:31.123Z,100646.56
2023-03-29T22:02:57.503Z,100645.72
2023-03-29T22:05:23.861Z,100646.56
2023-03-29T22:07:50.155Z,100642.28
2023-03-29T22:10:16.970Z,100640.59
2023-03-29T22:12:43.275Z,100642.25
2023-03-29T22:15:10.577Z,100635.47
2023-03-29T22:17:36.909Z,100627.81
2023-03-29T22:20:04.070Z,100632.94
2023-03-29T22:22:30.408Z,100624.41
2023-03-29T22:24:56.711Z,100625.28
2023-03-29T22:27:23.152Z,100630.38
2023-03-29T22:29:49.473Z,100628.66
2023-03-29T22:32:15.943Z,100628.66
2023-03-29T22:34:42.430Z,100618.41
2023-03-29T22:37:08.731Z,100620.94
2023-03-29T22:39:35.604Z,100623.50
2023-03-29T22:42:02.111Z,100621.75
2023-03-29T22:44:28.534Z,100621.78
2023-03-29T22:46:54.843Z,100620.09
2023-03-29T22:49:21.411Z,100618.38
2023-03-29T22:51:47.749Z,100613.25
2023-03-29T22:54:14.091Z,100614.97
2023-03-29T22:56:42.267Z,100617.56
2023-03-29T22:59:08.818Z,100614.97
2023-03-29T23:01:35.226Z,100615.81
2023-03-29T23:04:01.704Z,100609.88
2023-03-29T23:06:28.066Z,100604.81
2023-03-29T23:08:54.393Z,100603.09
2023-03-29T23:11:20.820Z,100597.97
2023-03-29T23:13:47.124Z,100592.91
2023-03-29T23:16:13.469Z,100590.31
2023-03-29T23:18:39.808Z,100594.59
2023-03-29T23:21:06.785Z,100586.94
2023-03-29T23:23:33.354Z,100580.13
2023-03-29T23:25:59.862Z,100577.59
2023-03-29T23:28:27.746Z,100576.75
2023-03-29T23:31:10.696Z,100575.84
2023-03-29T23:33:41.759Z,100576.69
2023-03-29T23:36:11.387Z,100574.16
2023-03-29T23:38:38.878Z,100571.63
2023-03-29T23:41:08.031Z,100579.25
2023-03-29T23:43:36.419Z,100574.13
2023-03-29T23:46:05.340Z,100571.50
2023-03-29T23:48:32.012Z,100580.00
2023-03-29T23:50:58.348Z,100577.41
2023-03-29T23:53:26.159Z,100558.66
2023-03-29T23:55:55.859Z,100560.34
2023-03-29T23:58:24.945Z,100552.69
